Flight Track Log - Related Links

Times and Time Zones

All times are in EDT time to prevent confusion due to time zone crossing. See the IBE6586 flight status page for this flight to view local times or setup timezone preferences in your user account.

Time Position Orientation Groundspeed Altitude Reporting Facility
EDT Latitude Longitude Course Direction KTS MPH feet Rate Location/Type
Sun 07:12:00 PM 9.1480 -69.5759 48° Northeast  Level FlightAware Approximate
Sun 07:13:00 PM 9.2404 -69.4721 48° Northeast  Level FlightAware Approximate
Sun 07:14:00 PM 9.3328 -69.3682 48° Northeast  Level FlightAware Approximate
Sun 07:15:00 PM 9.4252 -69.2642 48° Northeast  Level FlightAware Approximate
Sun 07:16:00 PM 9.5175 -69.1602 48° Northeast  Level FlightAware Approximate
Sun 07:17:00 PM 9.6098 -69.0561 48° Northeast  Level FlightAware Approximate
Sun 07:18:00 PM 9.7021 -68.9520 48° Northeast  Level FlightAware Approximate
Sun 07:19:00 PM 9.7943 -68.8478 48° Northeast  Level FlightAware Approximate
Sun 07:20:00 PM 9.8866 -68.7436 48° Northeast  Level FlightAware Approximate
Sun 07:21:00 PM 9.9788 -68.6393 48° Northeast  Level FlightAware Approximate
Sun 07:22:00 PM 10.0709 -68.5349 48° Northeast  Level FlightAware Approximate
Sun 07:23:00 PM 10.1630 -68.4305 48° Northeast  Level FlightAware Approximate
Sun 07:24:00 PM 10.2551 -68.3260 48° Northeast  Level FlightAware Approximate
Sun 07:25:00 PM 10.3472 -68.2215 48° Northeast  Level FlightAware Approximate
Sun 07:26:00 PM 10.4392 -68.1169 48° Northeast  Level FlightAware Approximate
Sun 07:27:00 PM 10.4866 -67.9938 87° East  Level FlightAware Approximate
Sun 07:28:00 PM 10.4927 -67.8535 87° East  Level FlightAware Approximate
Sun 07:29:00 PM 10.4987 -67.7133 87° East  Level FlightAware Approximate
Sun 07:30:00 PM 10.5048 -67.5730 87° East  Level FlightAware Approximate
Sun 07:31:00 PM 10.5107 -67.4328 88° East  Level FlightAware Approximate
Sun 07:32:00 PM 10.5166 -67.2925 88° East  Level FlightAware Approximate
Sun 07:33:00 PM 10.5224 -67.1523 88° East  Level FlightAware Approximate
Sun 07:34:00 PM 10.5282 -67.0120 88° East  Level FlightAware Approximate
Sun 07:35:00 PM 10.5339 -66.8717 88° East  Level FlightAware Approximate
Sun 07:36:00 PM 10.5395 -66.7314 88° East  Level FlightAware Approximate
Sun 07:37:00 PM 10.5451 -66.5911 88° East  Level FlightAware Approximate
Sun 07:38:00 PM 10.5506 -66.4509 88° East  Level FlightAware Approximate
Sun 07:39:00 PM 10.5561 -66.3105 88° East  Level FlightAware Approximate
Sun 07:40:00 PM 10.5615 -66.1702 88° East  Level FlightAware Approximate
Sun 07:41:00 PM 10.5679 -66.0302 68° East  Level FlightAware Approximate
Sun 07:42:00 PM 10.6197 -65.9000 68° East  Level FlightAware Approximate
Sun 07:43:00 PM 10.6714 -65.7698 68° East  Level FlightAware Approximate
Sun 07:44:00 PM 10.7230 -65.6395 68° East  Level FlightAware Approximate
Sun 07:45:00 PM 10.7746 -65.5092 68° East  Level FlightAware Approximate
Sun 07:46:00 PM 10.8262 -65.3789 68° East  Level FlightAware Approximate
Sun 07:47:00 PM 10.8777 -65.2485 68° East  Level FlightAware Approximate
Sun 07:48:00 PM 10.9291 -65.1180 68° East  Level FlightAware Approximate
Sun 07:49:00 PM 10.9805 -64.9875 68° East  Level FlightAware Approximate
Sun 07:50:00 PM 11.0318 -64.8570 68° East  Level FlightAware Approximate
Sun 07:51:00 PM 11.0831 -64.7264 68° East  Level FlightAware Approximate
Sun 07:52:00 PM 11.1343 -64.5958 68° East  Level FlightAware Approximate
Sun 07:53:00 PM 11.1855 -64.4651 68° East  Level FlightAware Approximate
Sun 07:54:00 PM 11.2366 -64.3344 68° East  Level FlightAware Approximate
Sun 07:55:00 PM 11.2876 -64.2037 68° East  Level FlightAware Approximate
Sun 07:56:00 PM 11.3386 -64.0728 68° East  Level FlightAware Approximate
Sun 07:57:00 PM 11.3895 -63.9420 68° East  Level FlightAware Approximate
Sun 07:58:00 PM 11.4404 -63.8111 68° East  Level FlightAware Approximate
Sun 07:59:00 PM 11.4912 -63.6801 68° East  Level FlightAware Approximate
Sun 08:00:00 PM 11.5419 -63.5491 68° East  Level FlightAware Approximate
Sun 08:01:00 PM 11.5926 -63.4181 68° East  Level FlightAware Approximate
Sun 08:02:00 PM 11.6433 -63.2870 68° East  Level FlightAware Approximate
Sun 08:03:00 PM 11.6938 -63.1558 68° East  Level FlightAware Approximate
Sun 08:04:00 PM 11.7444 -63.0247 69° East  Level FlightAware Approximate
Sun 08:05:00 PM 11.7946 -62.8933 69° East  Level FlightAware Approximate
Sun 08:06:00 PM 11.8447 -62.7619 69° East  Level FlightAware Approximate
Sun 08:07:00 PM 11.8946 -62.6304 69° East  Level FlightAware Approximate
Sun 08:08:00 PM 11.9445 -62.4989 69° East  Level FlightAware Approximate
Sun 08:09:00 PM 11.9944 -62.3673 69° East  Level FlightAware Approximate
Sun 08:10:00 PM 12.0442 -62.2357 69° East  Level FlightAware Approximate
Sun 08:11:00 PM 12.0939 -62.1040 69° East  Level FlightAware Approximate
Sun 08:12:00 PM 12.1436 -61.9723 69° East  Level FlightAware Approximate
Sun 08:13:00 PM 12.1932 -61.8406 69° East  Level FlightAware Approximate
Sun 08:14:00 PM 12.2427 -61.7087 69° East  Level FlightAware Approximate
Sun 08:15:00 PM 12.2922 -61.5769 69° East  Level FlightAware Approximate
Sun 08:16:00 PM 12.3416 -61.4450 69° East  Level FlightAware Approximate
Sun 08:17:00 PM 12.3910 -61.3130 69° East  Level FlightAware Approximate
Sun 08:18:00 PM 12.4403 -61.1810 69° East  Level FlightAware Approximate
Sun 08:19:00 PM 12.4895 -61.0489 69° East  Level FlightAware Approximate
Sun 08:20:00 PM 12.5387 -60.9168 69° East  Level FlightAware Approximate
Sun 08:21:00 PM 12.5878 -60.7846 69° East  Level FlightAware Approximate
Sun 08:22:00 PM 12.6368 -60.6524 69° East  Level FlightAware Approximate
Sun 08:23:00 PM 12.6858 -60.5201 69° East  Level FlightAware Approximate
Sun 08:24:00 PM 12.7347 -60.3878 69° East  Level FlightAware Approximate
Sun 08:25:00 PM 12.7835 -60.2554 69° East  Level FlightAware Approximate
Sun 08:26:00 PM 12.8323 -60.1230 69° East  Level FlightAware Approximate
Sun 08:27:00 PM 12.8810 -59.9905 69° East  Level FlightAware Approximate
Sun 08:28:00 PM 12.9296 -59.8580 69° East  Level FlightAware Approximate
Sun 08:29:00 PM 12.9782 -59.7254 69° East  Level FlightAware Approximate
Sun 08:30:00 PM 13.0267 -59.5928 69° East  Level FlightAware Approximate
Sun 08:31:00 PM 13.0819 -59.4641 51° Northeast  Level FlightAware Approximate
Sun 08:32:00 PM 13.1690 -59.3542 51° Northeast  Level FlightAware Approximate
Sun 08:33:00 PM 13.2560 -59.2441 51° Northeast  Level FlightAware Approximate
Sun 08:34:00 PM 13.3430 -59.1340 51° Northeast  Level FlightAware Approximate
Sun 08:34:07 PM 12.5420 -60.6340 51° Northeast 524 603 36,000  Level FlightAware ADS-B
Sun 08:34:52 PM 12.5840 -60.5440 64° Northeast 525 604 36,000  Level FlightAware ADS-B
Sun 08:35:32 PM 12.6310 -60.4430 64° Northeast 526 605 36,000  Level FlightAware ADS-B
Sun 08:36:17 PM 12.6780 -60.3410 65° Northeast 526 605 36,000  Level FlightAware ADS-B
Sun 08:36:57 PM 12.7210 -60.2500 64° Northeast 527 606 36,000  Level FlightAware ADS-B
Sun 08:37:37 PM 12.7650 -60.1540 65° Northeast 527 606 36,000  Level FlightAware ADS-B
Sun 08:38:12 PM 12.8020 -60.0760 64° Northeast 527 606 36,000  Level FlightAware ADS-B
Sun 08:39:17 PM 12.8600 -59.9510 65° Northeast 526 605 36,000  Level FlightAware ADS-B
Sun 08:40:07 PM 12.9090 -59.8450 65° Northeast 525 604 36,000  Level FlightAware ADS-B
Sun 08:40:47 PM 12.9450 -59.7690 64° Northeast 525 604 36,000  Level FlightAware ADS-B
Sun 08:41:37 PM 13.0090 -59.6260 65° Northeast 528 608 36,000  Level FlightAware ADS-B
Sun 08:42:17 PM 13.0560 -59.5270 64° Northeast 528 608 36,000  Level FlightAware ADS-B
Sun 08:43:02 PM 13.1130 -59.4360 57° Northeast 525 604 36,000  Level FlightAware ADS-B
Sun 08:43:37 PM 13.1600 -59.3760 51° Northeast 523 602 36,000  Level FlightAware ADS-B
Sun 08:44:22 PM 13.2220 -59.3000 50° Northeast 523 602 36,000  Level FlightAware ADS-B
Sun 08:45:02 PM 13.2750 -59.2350 50° Northeast 523 602 36,000  Level FlightAware ADS-B
Sun 08:45:42 PM 13.3270 -59.1700 51° Northeast 523 602 36,000  Level FlightAware ADS-B
Sun 08:46:22 PM 13.3800 -59.1050 50° Northeast 523 602 36,000  Level FlightAware ADS-B
Sun 08:47:12 PM 13.4460 -59.0240 50° Northeast 523 602 36,000  Level FlightAware ADS-B
Sun 08:48:02 PM 13.5630 -58.8650 53° Northeast 527 606 36,000  Level FlightAware ADS-B
Sun 08:48:47 PM 13.6230 -58.7880 51° Northeast 527 606 36,000  Level FlightAware ADS-B
Sun 08:49:27 PM 13.6880 -58.7050 51° Northeast 529 609 36,000  Level FlightAware ADS-B
Sun 08:50:37 PM 13.7880 -58.5780 51° Northeast 528 608 36,000  Level FlightAware ADS-B
Sun 08:51:22 PM 13.8730 -58.4680 51° Northeast 530 610 36,000  Level FlightAware ADS-B
Sun 08:52:02 PM 13.9260 -58.4010 51° Northeast 529 609 36,000  Level FlightAware ADS-B
Sun 08:53:02 PM 14.0170 -58.2850 51° Northeast 530 610 36,000  Level FlightAware ADS-B
Sun 08:53:42 PM 14.0810 -58.2020 52° Northeast 530 610 36,000  Level FlightAware ADS-B
Sun 08:54:27 PM 14.1490 -58.1150 51° Northeast 530 610 36,000  Level FlightAware ADS-B
Sun 08:55:02 PM 14.2050 -58.0430 51° Northeast 532 612 36,000  Level FlightAware ADS-B
Sun 08:55:42 PM 14.2610 -57.9710 51° Northeast 534 615 36,000  Level FlightAware ADS-B
Sun 08:56:32 PM 14.3430 -57.8660 51° Northeast 535 616 36,000  Level FlightAware ADS-B
Sun 08:57:27 PM 14.4370 -57.7450 51° Northeast 535 616 36,000  Level FlightAware ADS-B
Sun 08:58:12 PM 14.5030 -57.6590 52° Northeast 535 616 36,000  Level FlightAware ADS-B
Sun 08:58:52 PM 14.5560 -57.5910 51° Northeast 535 616 36,000  Level FlightAware ADS-B
Sun 08:59:32 PM 14.6290 -57.4960 52° Northeast 536 617 36,000  Level FlightAware ADS-B
Sun 09:00:32 PM 14.7090 -57.3930 51° Northeast 536 617 36,000  Level FlightAware ADS-B
Sun 09:01:12 PM 14.7620 -57.3250 51° Northeast 536 617 36,000  Level FlightAware ADS-B
Sun 09:01:52 PM 14.8150 -57.2580 51° Northeast 536 617 36,000  Level FlightAware ADS-B
Sun 09:02:32 PM 14.8690 -57.1900 51° Northeast 536 617 36,000  Level FlightAware ADS-B
Sun 09:03:12 PM 14.9220 -57.1220 51° Northeast 536 617 36,000  Level FlightAware ADS-B
Sun 09:03:52 PM 14.9750 -57.0540 51° Northeast 536 617 36,000  Level FlightAware ADS-B
Sun 09:04:42 PM 15.0410 -56.9690 51° Northeast 536 617 36,000  Level FlightAware ADS-B
Sun 09:05:22 PM 15.0940 -56.9010 51° Northeast 536 617 36,000  Level FlightAware ADS-B
Sun 09:06:02 PM 15.1470 -56.8340 51° Northeast 536 617 36,000  Level FlightAware ADS-B
Sun 09:06:42 PM 15.2000 -56.7660 51° Northeast 536 617 36,000  Level FlightAware ADS-B
Sun 09:07:22 PM 15.2530 -56.6980 51° Northeast 536 617 36,000  Level FlightAware ADS-B
Sun 09:08:12 PM 15.3200 -56.6130 51° Northeast 536 617 36,000  Level FlightAware ADS-B
Sun 09:08:52 PM 15.3730 -56.5450 51° Northeast 536 617 36,000  Level FlightAware ADS-B
Sun 09:09:32 PM 15.4260 -56.4770 51° Northeast 536 617 36,000  Level FlightAware ADS-B
Sun 09:12:00 PM 15.6359 -56.1997 52° Northeast  Level FlightAware Approximate
Sun 09:13:00 PM 15.7209 -56.0871 52° Northeast  Level FlightAware Approximate
Sun 09:14:00 PM 15.8059 -55.9744 52° Northeast  Level FlightAware Approximate
Sun 09:15:00 PM 15.8908 -55.8616 52° Northeast  Level FlightAware Approximate
Sun 09:16:00 PM 15.9756 -55.7487 52° Northeast  Level FlightAware Approximate
Sun 09:17:00 PM 16.0604 -55.6358 52° Northeast  Level FlightAware Approximate
Sun 09:18:00 PM 16.1451 -55.5227 52° Northeast  Level FlightAware Approximate
Sun 09:19:00 PM 16.2297 -55.4095 52° Northeast  Level FlightAware Approximate
Sun 09:20:00 PM 16.3143 -55.2963 52° Northeast  Level FlightAware Approximate
Sun 09:21:00 PM 16.3988 -55.1829 52° Northeast  Level FlightAware Approximate
Sun 09:22:00 PM 16.4833 -55.0695 52° Northeast  Level FlightAware Approximate
Sun 09:23:00 PM 16.5677 -54.9559 52° Northeast  Level FlightAware Approximate
Sun 09:24:00 PM 16.6521 -54.8422 52° Northeast  Level FlightAware Approximate
Sun 09:25:00 PM 16.7364 -54.7285 52° Northeast  Level FlightAware Approximate
Sun 09:26:00 PM 16.8206 -54.6146 52° Northeast  Level FlightAware Approximate
Sun 09:27:00 PM 16.9048 -54.5006 52° Northeast  Level FlightAware Approximate
Sun 09:28:00 PM 16.9888 -54.3866 52° Northeast  Level FlightAware Approximate
Sun 09:29:00 PM 17.0729 -54.2724 52° Northeast  Level FlightAware Approximate
Sun 09:30:00 PM 17.1569 -54.1582 52° Northeast  Level FlightAware Approximate
Sun 09:31:00 PM 17.2408 -54.0438 52° Northeast  Level FlightAware Approximate
Sun 09:32:00 PM 17.3246 -53.9293 52° Northeast  Level FlightAware Approximate
Sun 09:33:00 PM 17.4084 -53.8147 53° Northeast  Level FlightAware Approximate
Sun 09:34:00 PM 17.4921 -53.7001 53° Northeast  Level FlightAware Approximate
Sun 09:35:00 PM 17.5758 -53.5853 53° Northeast  Level FlightAware Approximate
Sun 09:35:39 PM 18.0000 -53.0000 54° Northeast 555 639 36,000  Level New York Oceanic (ODAPS)
Sun 09:36:00 PM 17.6593 -53.4704 53° Northeast  Level FlightAware Approximate
Sun 09:37:00 PM 17.7428 -53.3554 53° Northeast  Level FlightAware Approximate
Sun 09:38:00 PM 17.8263 -53.2403 53° Northeast  Level FlightAware Approximate
Sun 09:39:00 PM 17.9097 -53.1250 53° Northeast  Level FlightAware Approximate
Sun 09:40:00 PM 17.9930 -53.0097 53° Northeast  Level FlightAware Approximate
Sun 09:41:00 PM 18.5264 -52.2243 55° Northeast 555 639 36,000  Level FlightAware Transoceanic
Sun 09:42:00 PM 18.6138 -52.0945 55° Northeast 555 639 36,000  Level FlightAware Transoceanic
Sun 09:43:00 PM 18.7011 -51.9647 55° Northeast 555 639 36,000  Level FlightAware Transoceanic
Sun 09:44:00 PM 18.7883 -51.8346 55° Northeast 555 639 36,000  Level FlightAware Transoceanic
Sun 09:45:00 PM 18.8755 -51.7045 55° Northeast 555 639 36,000  Level FlightAware Transoceanic
Sun 09:46:00 PM 18.9625 -51.5742 55° Northeast 555 639 36,000  Level FlightAware Transoceanic
Sun 09:46:09 PM 18.9500 -51.6000 55° Northeast 550 633 36,000  Level New York Oceanic (ODAPS)
Sun 09:47:00 PM 19.0495 -51.4438 55° Northeast 555 639 36,000  Level FlightAware Transoceanic
Sun 09:48:00 PM 19.1364 -51.3132 55° Northeast 555 639 36,000  Level FlightAware Transoceanic
Sun 09:49:00 PM 19.2232 -51.1825 55° Northeast 555 639 36,000  Level FlightAware Transoceanic
Sun 09:50:00 PM 19.3099 -51.0517 55° Northeast 555 639 36,000  Level FlightAware Transoceanic
Sun 09:51:00 PM 19.3965 -50.9207 55° Northeast 555 639 36,000  Level FlightAware Transoceanic
Sun 09:52:00 PM 19.4768 -50.8026 55° Northeast 550 633 36,000  Level FlightAware Transoceanic
Sun 09:53:00 PM 19.5642 -50.6692 55° Northeast 550 633 36,000  Level FlightAware Transoceanic
Sun 09:54:00 PM 19.6516 -50.5356 55° Northeast 550 633 36,000  Level FlightAware Transoceanic
Sun 09:55:00 PM 19.7388 -50.4020 55° Northeast 550 633 36,000  Level FlightAware Transoceanic
Sun 09:56:00 PM 19.8260 -50.2681 55° Northeast 550 633 36,000  Level FlightAware Transoceanic
Sun 09:57:00 PM 19.9130 -50.1341 55° Northeast 550 633 36,000  Level FlightAware Transoceanic
Sun 09:58:00 PM 20.0000 -50.0000 51° Northeast 550 633 36,000  Level FlightAware Transoceanic
Sun 09:58:20 PM 20.0000 -50.0000 51° Northeast 529 609 36,000  Level New York Oceanic (ODAPS)
Sun 09:59:00 PM 20.0947 -49.8766 51° Northeast 550 633 36,000  Level FlightAware Transoceanic
Sun 10:00:00 PM 20.1894 -49.7530 51° Northeast 550 633 36,000  Level FlightAware Transoceanic
Sun 10:01:00 PM 20.2839 -49.6293 51° Northeast 550 633 36,000  Level FlightAware Transoceanic
Sun 10:02:00 PM 20.3784 -49.5054 51° Northeast 550 633 36,000  Level FlightAware Transoceanic
Sun 10:03:00 PM 20.4727 -49.3814 51° Northeast 550 633 36,000  Level FlightAware Transoceanic
Sun 10:04:00 PM 20.5598 -49.2668 51° Northeast 529 609 36,000  Level FlightAware Transoceanic
Sun 10:05:00 PM 20.6528 -49.1440 51° Northeast 529 609 36,000  Level FlightAware Transoceanic
Sun 10:06:00 PM 20.7457 -49.0212 51° Northeast 529 609 36,000  Level FlightAware Transoceanic
Sun 10:06:24 PM 20.8000 -48.9333 51° Northeast 526 605 36,000  Level New York Oceanic (ODAPS)
Sun 10:07:00 PM 20.8385 -48.8982 51° Northeast 529 609 36,000  Level FlightAware Transoceanic
Sun 10:08:00 PM 20.9313 -48.7750 51° Northeast 529 609 36,000  Level FlightAware Transoceanic
Sun 10:09:00 PM 21.0239 -48.6516 51° Northeast 529 609 36,000  Level FlightAware Transoceanic
Sun 10:10:00 PM 21.1165 -48.5282 51° Northeast 529 609 36,000  Level FlightAware Transoceanic
Sun 10:11:00 PM 21.2090 -48.4045 51° Northeast 529 609 36,000  Level FlightAware Transoceanic
Sun 10:12:00 PM 21.3506 -48.1999 51° Northeast 526 605 36,000  Level FlightAware Transoceanic
Sun 10:13:00 PM 21.4421 -48.0771 51° Northeast 526 605 36,000  Level FlightAware Transoceanic
Sun 10:14:00 PM 21.5334 -47.9542 51° Northeast 526 605 36,000  Level FlightAware Transoceanic
Sun 10:15:00 PM 21.6247 -47.8311 51° Northeast 526 605 36,000  Level FlightAware Transoceanic
Sun 10:16:00 PM 21.7159 -47.7078 51° Northeast 526 605 36,000  Level FlightAware Transoceanic
Sun 10:17:00 PM 21.8070 -47.5844 52° Northeast 526 605 36,000  Level FlightAware Transoceanic
Sun 10:18:00 PM 21.8980 -47.4609 52° Northeast 526 605 36,000  Level FlightAware Transoceanic
Sun 10:19:00 PM 21.9889 -47.3372 52° Northeast 526 605 36,000  Level FlightAware Transoceanic
Sun 10:20:00 PM 22.0798 -47.2133 52° Northeast 526 605 36,000  Level FlightAware Transoceanic
Sun 10:21:00 PM 22.1705 -47.0893 52° Northeast 526 605 36,000  Level FlightAware Transoceanic
Sun 10:22:00 PM 22.2611 -46.9651 52° Northeast 526 605 36,000  Level FlightAware Transoceanic
Sun 10:23:00 PM 22.3517 -46.8408 52° Northeast 526 605 36,000  Level FlightAware Transoceanic
Sun 10:24:00 PM 22.4421 -46.7162 52° Northeast 526 605 36,000  Level FlightAware Transoceanic
Sun 10:25:00 PM 22.5324 -46.5916 52° Northeast 526 605 36,000  Level FlightAware Transoceanic
Sun 10:26:00 PM 22.6227 -46.4667 52° Northeast 526 605 36,000  Level FlightAware Transoceanic
Sun 10:26:42 PM 22.7667 -46.2833 52° Northeast 543 625 36,000  Level New York Oceanic (ODAPS)
Sun 10:27:00 PM 22.7129 -46.3417 52° Northeast 526 605 36,000  Level FlightAware Transoceanic
Sun 10:28:00 PM 22.8029 -46.2166 52° Northeast 526 605 36,000  Level FlightAware Transoceanic
Sun 10:29:00 PM 22.8929 -46.0912 52° Northeast 526 605 36,000  Level FlightAware Transoceanic
Sun 10:30:00 PM 22.9827 -45.9657 52° Northeast 526 605 36,000  Level FlightAware Transoceanic
Sun 10:31:00 PM 23.0725 -45.8401 52° Northeast 526 605 36,000  Level FlightAware Transoceanic
Sun 10:32:00 PM 23.1622 -45.7142 52° Northeast 526 605 36,000  Level FlightAware Transoceanic
Sun 10:33:00 PM 23.3213 -45.5046 52° Northeast 543 625 36,000  Level FlightAware Transoceanic
Sun 10:34:00 PM 23.4133 -45.3742 52° Northeast 543 625 36,000  Level FlightAware Transoceanic
Sun 10:35:00 PM 23.5053 -45.2436 53° Northeast 543 625 36,000  Level FlightAware Transoceanic
Sun 10:36:00 PM 23.5971 -45.1128 53° Northeast 543 625 36,000  Level FlightAware Transoceanic
Sun 10:37:00 PM 23.6889 -44.9819 53° Northeast 543 625 36,000  Level FlightAware Transoceanic
Sun 10:38:00 PM 23.7805 -44.8507 53° Northeast 543 625 36,000  Level FlightAware Transoceanic
Sun 10:39:00 PM 23.8720 -44.7194 53° Northeast 543 625 36,000  Level FlightAware Transoceanic
Sun 10:40:00 PM 23.9634 -44.5879 53° Northeast 543 625 36,000  Level FlightAware Transoceanic
Sun 10:41:00 PM 24.0547 -44.4562 53° Northeast 543 625 36,000  Level FlightAware Transoceanic
Sun 10:42:00 PM 24.1459 -44.3243 53° Northeast 543 625 36,000  Level FlightAware Transoceanic
Sun 10:43:00 PM 24.2369 -44.1922 53° Northeast 543 625 36,000  Level FlightAware Transoceanic
Sun 10:44:00 PM 24.3279 -44.0600 53° Northeast 543 625 36,000  Level FlightAware Transoceanic
Sun 10:45:00 PM 24.4187 -43.9275 53° Northeast 543 625 36,000  Level FlightAware Transoceanic
Sun 10:46:00 PM 24.5094 -43.7949 53° Northeast 543 625 36,000  Level FlightAware Transoceanic
Sun 10:46:58 PM 24.6667 -43.5667 53° Northeast 532 612 36,000  Level New York Oceanic (ODAPS)
Sun 10:47:00 PM 24.6000 -43.6620 53° Northeast 543 625 36,000  Level FlightAware Transoceanic
Sun 10:48:00 PM 24.6905 -43.5290 53° Northeast 543 625 36,000  Level FlightAware Transoceanic
Sun 10:49:00 PM 24.7809 -43.3958 53° Northeast 543 625 36,000  Level FlightAware Transoceanic
Sun 10:50:00 PM 24.8711 -43.2624 53° Northeast 543 625 36,000  Level FlightAware Transoceanic
Sun 10:51:00 PM 24.9613 -43.1287 53° Northeast 543 625 36,000  Level FlightAware Transoceanic
Sun 10:52:00 PM 25.0513 -42.9949 53° Northeast 543 625 36,000  Level FlightAware Transoceanic
Sun 10:53:00 PM 25.1926 -42.7861 54° Northeast 532 612 36,000  Level FlightAware Transoceanic
Sun 10:54:00 PM 25.2799 -42.6554 54° Northeast 532 612 36,000  Level FlightAware Transoceanic
Sun 10:55:00 PM 25.3670 -42.5244 54° Northeast 532 612 36,000  Level FlightAware Transoceanic
Sun 10:56:00 PM 25.4541 -42.3933 54° Northeast 532 612 36,000  Level FlightAware Transoceanic
Sun 10:57:00 PM 25.5410 -42.2620 54° Northeast 532 612 36,000  Level FlightAware Transoceanic
Sun 10:58:00 PM 25.6278 -42.1305 54° Northeast 532 612 36,000  Level FlightAware Transoceanic
Sun 10:59:00 PM 25.7144 -41.9988 54° Northeast 532 612 36,000  Level FlightAware Transoceanic
Sun 11:00:00 PM 25.8010 -41.8669 54° Northeast 532 612 36,000  Level FlightAware Transoceanic
Sun 11:01:00 PM 25.8874 -41.7349 54° Northeast 532 612 36,000  Level FlightAware Transoceanic
Sun 11:02:00 PM 25.9737 -41.6026 54° Northeast 532 612 36,000  Level FlightAware Transoceanic
Sun 11:03:00 PM 26.0599 -41.4701 54° Northeast 532 612 36,000  Level FlightAware Transoceanic
Sun 11:04:00 PM 26.1460 -41.3375 54° Northeast 532 612 36,000  Level FlightAware Transoceanic
Sun 11:05:00 PM 26.2320 -41.2046 54° Northeast 532 612 36,000  Level FlightAware Transoceanic
Sun 11:06:00 PM 26.3178 -41.0716 54° Northeast 532 612 36,000  Level FlightAware Transoceanic
Sun 11:07:00 PM 26.4035 -40.9383 54° Northeast 532 612 36,000  Level FlightAware Transoceanic
Sun 11:07:14 PM 26.4333 -40.8833 54° Northeast 527 606 36,000  Level New York Oceanic (ODAPS)
Sun 11:08:00 PM 26.4891 -40.8049 54° Northeast 532 612 36,000  Level FlightAware Transoceanic
Sun 11:09:00 PM 26.5746 -40.6712 54° Northeast 532 612 36,000  Level FlightAware Transoceanic
Sun 11:10:00 PM 26.6599 -40.5374 55° Northeast 532 612 36,000  Level FlightAware Transoceanic
Sun 11:11:00 PM 26.7451 -40.4033 55° Northeast 532 612 36,000  Level FlightAware Transoceanic
Sun 11:12:00 PM 26.8302 -40.2691 55° Northeast 532 612 36,000  Level FlightAware Transoceanic
Sun 11:13:00 PM 26.9194 -40.1267 54° Northeast 527 606 36,000  Level FlightAware Transoceanic
Sun 11:14:00 PM 27.0000 -40.0000 53° Northeast 527 606 36,000  Level FlightAware Transoceanic
Sun 11:15:00 PM 27.0858 -39.8726 53° Northeast 527 606 36,000  Level FlightAware Transoceanic
Sun 11:16:00 PM 27.1716 -39.7451 53° Northeast 527 606 36,000  Level FlightAware Transoceanic
Sun 11:17:00 PM 27.2572 -39.6173 53° Northeast 527 606 36,000  Level FlightAware Transoceanic
Sun 11:18:00 PM 27.3427 -39.4894 53° Northeast 527 606 36,000  Level FlightAware Transoceanic
Sun 11:19:00 PM 27.4280 -39.3612 53° Northeast 527 606 36,000  Level FlightAware Transoceanic
Sun 11:20:00 PM 27.5133 -39.2329 53° Northeast 527 606 36,000  Level FlightAware Transoceanic
Sun 11:21:00 PM 27.5984 -39.1043 53° Northeast 527 606 36,000  Level FlightAware Transoceanic
Sun 11:22:00 PM 27.6834 -38.9756 53° Northeast 527 606 36,000  Level FlightAware Transoceanic
Sun 11:23:00 PM 27.7683 -38.8466 53° Northeast 527 606 36,000  Level FlightAware Transoceanic
Sun 11:24:00 PM 27.8531 -38.7175 53° Northeast 527 606 36,000  Level FlightAware Transoceanic
Sun 11:25:00 PM 27.9378 -38.5881 54° Northeast 527 606 36,000  Level FlightAware Transoceanic
Sun 11:26:00 PM 28.0223 -38.4586 54° Northeast 527 606 36,000  Level FlightAware Transoceanic
Sun 11:27:00 PM 28.1067 -38.3288 54° Northeast 527 606 36,000  Level FlightAware Transoceanic
Sun 11:28:00 PM 28.1910 -38.1988 54° Northeast 527 606 36,000  Level FlightAware Transoceanic
Sun 11:29:00 PM 28.2752 -38.0687 54° Northeast 527 606 36,000  Level FlightAware Transoceanic
Sun 11:30:00 PM 28.3592 -37.9383 54° Northeast 527 606 36,000  Level FlightAware Transoceanic
Sun 11:31:00 PM 28.4432 -37.8077 54° Northeast 527 606 36,000  Level FlightAware Transoceanic
Sun 11:32:00 PM 28.5270 -37.6769 54° Northeast 527 606 36,000  Level FlightAware Transoceanic
Sun 11:33:00 PM 28.6106 -37.5460 54° Northeast 527 606 36,000  Level FlightAware Transoceanic
Sun 11:34:00 PM 28.6942 -37.4148 54° Northeast 527 606 36,000  Level FlightAware Transoceanic
Sun 11:35:00 PM 28.7776 -37.2833 54° Northeast 527 606 36,000  Level FlightAware Transoceanic
Sun 11:36:00 PM 28.8609 -37.1517 54° Northeast 527 606 36,000  Level FlightAware Transoceanic
Sun 11:37:00 PM 28.9441 -37.0199 54° Northeast 527 606 36,000  Level FlightAware Transoceanic
Sun 11:38:00 PM 29.0271 -36.8879 54° Northeast 527 606 36,000  Level FlightAware Transoceanic
Sun 11:39:00 PM 29.1100 -36.7556 54° Northeast 527 606 36,000  Level FlightAware Transoceanic
Sun 11:40:00 PM 29.1928 -36.6231 54° Northeast 527 606 36,000  Level FlightAware Transoceanic
Sun 11:41:00 PM 29.2754 -36.4904 55° Northeast 527 606 36,000  Level FlightAware Transoceanic
Sun 11:42:00 PM 29.3580 -36.3575 55° Northeast 527 606 36,000  Level FlightAware Transoceanic
Sun 11:43:00 PM 29.4403 -36.2244 55° Northeast 527 606 36,000  Level FlightAware Transoceanic
Sun 11:44:00 PM 29.5226 -36.0911 55° Northeast 527 606 36,000  Level FlightAware Transoceanic
Sun 11:45:00 PM 29.6047 -35.9576 55° Northeast 527 606 36,000  Level FlightAware Transoceanic
Sun 11:46:00 PM 29.6867 -35.8238 55° Northeast 527 606 36,000  Level FlightAware Transoceanic
Sun 11:47:00 PM 29.7686 -35.6898 55° Northeast 527 606 36,000  Level FlightAware Transoceanic
Sun 11:48:00 PM 29.8503 -35.5556 55° Northeast 527 606 36,000  Level FlightAware Transoceanic
Sun 11:49:00 PM 29.9319 -35.4212 55° Northeast 527 606 36,000  Level FlightAware Transoceanic
Sun 11:50:00 PM 30.0133 -35.2865 55° Northeast 527 606 36,000  Level FlightAware Transoceanic
Sun 11:51:00 PM 30.0946 -35.1517 55° Northeast 527 606 36,000  Level FlightAware Transoceanic
Sun 11:52:00 PM 30.1758 -35.0166 55° Northeast 527 606 36,000  Level FlightAware Transoceanic
Sun 11:53:00 PM 30.2568 -34.8813 55° Northeast 527 606 36,000  Level FlightAware Transoceanic
Sun 11:54:00 PM 30.3377 -34.7458 55° Northeast 527 606 36,000  Level FlightAware Transoceanic
Sun 11:55:00 PM 30.4184 -34.6100 55° Northeast 527 606 36,000  Level FlightAware Transoceanic
Sun 11:56:00 PM 30.4990 -34.4740 56° Northeast 527 606 36,000  Level FlightAware Transoceanic
Sun 11:57:00 PM 30.5795 -34.3378 56° Northeast 527 606 36,000  Level FlightAware Transoceanic
Sun 11:58:00 PM 30.6598 -34.2014 56° Northeast 527 606 36,000  Level FlightAware Transoceanic
Sun 11:59:00 PM 30.7400 -34.0647 56° Northeast 527 606 36,000  Level FlightAware Transoceanic
Mon 12:00:00 AM 30.8200 -33.9278 56° Northeast 527 606 36,000  Level FlightAware Transoceanic
Mon 12:01:00 AM 30.8999 -33.7907 56° Northeast 527 606 36,000  Level FlightAware Transoceanic
Mon 12:02:00 AM 30.9797 -33.6534 56° Northeast 527 606 36,000  Level FlightAware Transoceanic
Mon 12:03:00 AM 31.0593 -33.5158 56° Northeast 527 606 36,000  Level FlightAware Transoceanic
Mon 12:04:00 AM 31.1388 -33.3780 56° Northeast 527 606 36,000  Level FlightAware Transoceanic
Mon 12:05:00 AM 31.2181 -33.2400 56° Northeast 527 606 36,000  Level FlightAware Transoceanic
Mon 12:06:00 AM 31.2972 -33.1017 56° Northeast 527 606 36,000  Level FlightAware Transoceanic
Mon 12:07:00 AM 31.3762 -32.9632 56° Northeast 527 606 36,000  Level FlightAware Transoceanic
Mon 12:08:00 AM 31.4551 -32.8245 56° Northeast 527 606 36,000  Level FlightAware Transoceanic
Mon 12:09:00 AM 31.5338 -32.6855 56° Northeast 527 606 36,000  Level FlightAware Transoceanic
Mon 12:10:00 AM 31.6124 -32.5463 57° Northeast 527 606 36,000  Level FlightAware Transoceanic
Mon 12:11:00 AM 31.6908 -32.4069 57° Northeast 527 606 36,000  Level FlightAware Transoceanic
Mon 12:12:00 AM 31.7691 -32.2672 57° Northeast 527 606 36,000  Level FlightAware Transoceanic
Mon 12:13:00 AM 31.8472 -32.1273 57° Northeast 527 606 36,000  Level FlightAware Transoceanic
Mon 12:14:00 AM 31.9251 -31.9872 57° Northeast 527 606 36,000  Level FlightAware Transoceanic
Mon 12:15:00 AM 32.0029 -31.8468 57° Northeast 527 606 36,000  Level FlightAware Transoceanic
Mon 12:16:00 AM 32.0806 -31.7062 57° Northeast 527 606 36,000  Level FlightAware Transoceanic
Mon 12:17:00 AM 32.1581 -31.5653 57° Northeast 527 606 36,000  Level FlightAware Transoceanic
Mon 12:18:00 AM 32.2354 -31.4243 57° Northeast 527 606 36,000  Level FlightAware Transoceanic
Mon 12:19:00 AM 32.3126 -31.2829 57° Northeast 527 606 36,000  Level FlightAware Transoceanic
Mon 12:20:00 AM 32.3896 -31.1413 57° Northeast 527 606 36,000  Level FlightAware Transoceanic
Mon 12:21:00 AM 32.4665 -30.9995 57° Northeast 527 606 36,000  Level FlightAware Transoceanic
Mon 12:22:00 AM 32.5432 -30.8575 57° Northeast 527 606 36,000  Level FlightAware Transoceanic
Mon 12:23:00 AM 32.6197 -30.7152 57° Northeast 527 606 36,000  Level FlightAware Transoceanic
Mon 12:24:00 AM 32.6961 -30.5726 58° Northeast 527 606 36,000  Level FlightAware Transoceanic
Mon 12:25:00 AM 32.7723 -30.4298 58° Northeast 527 606 36,000  Level FlightAware Transoceanic
Mon 12:26:00 AM 32.8484 -30.2868 58° Northeast 527 606 36,000  Level FlightAware Transoceanic
Mon 12:27:00 AM 32.9243 -30.1435 58° Northeast 527 606 36,000  Level FlightAware Transoceanic
Mon 12:28:00 AM 32.9976 -30.0045 58° Northeast  Level FlightAware Approximate
Mon 12:29:00 AM 33.0708 -29.8653 58° Northeast  Level FlightAware Approximate
Mon 12:30:00 AM 33.0620 -29.8654 61° Northeast  Level FlightAware Approximate
Mon 12:31:00 AM 33.1283 -29.7212 61° Northeast  Level FlightAware Approximate
Mon 12:32:00 AM 33.1943 -29.5768 61° Northeast  Level FlightAware Approximate
Mon 12:33:00 AM 33.2602 -29.4322 61° Northeast  Level FlightAware Approximate
Mon 12:34:00 AM 33.3259 -29.2873 61° Northeast  Level FlightAware Approximate
Mon 12:35:00 AM 33.3914 -29.1423 62° Northeast  Level FlightAware Approximate
Mon 12:36:00 AM 33.4568 -28.9970 62° Northeast  Level FlightAware Approximate
Mon 12:37:00 AM 33.5220 -28.8515 62° Northeast  Level FlightAware Approximate
Mon 12:38:00 AM 33.5870 -28.7057 62° Northeast  Level FlightAware Approximate
Mon 12:39:00 AM 33.6519 -28.5598 62° Northeast  Level FlightAware Approximate
Mon 12:40:00 AM 33.7166 -28.4136 62° Northeast  Level FlightAware Approximate
Mon 12:41:00 AM 33.7811 -28.2673 62° Northeast  Level FlightAware Approximate
Mon 12:42:00 AM 33.8454 -28.1207 62° Northeast  Level FlightAware Approximate
Mon 12:43:00 AM 33.9096 -27.9738 62° Northeast  Level FlightAware Approximate
Mon 12:44:00 AM 33.9736 -27.8268 62° Northeast  Level FlightAware Approximate
Mon 12:45:00 AM 34.0374 -27.6795 62° Northeast  Level FlightAware Approximate
Mon 12:46:00 AM 34.1011 -27.5320 62° Northeast  Level FlightAware Approximate
Mon 12:47:00 AM 34.1645 -27.3843 63° Northeast  Level FlightAware Approximate
Mon 12:48:00 AM 34.2278 -27.2364 63° Northeast  Level FlightAware Approximate
Mon 12:49:00 AM 34.2909 -27.0882 63° Northeast  Level FlightAware Approximate
Mon 12:50:00 AM 34.3539 -26.9399 63° Northeast  Level FlightAware Approximate
Mon 12:51:00 AM 34.4166 -26.7913 63° Northeast  Level FlightAware Approximate
Mon 12:51:47 AM 34.5880 -26.3370 63° Northeast 487 560 36,000  Level FlightAware ADS-B
Mon 12:51:57 AM 34.5820 -26.3530 246° West 36,000  Level FlightAware ADS-B
Mon 12:52:00 AM 34.4792 -26.6424 63° Northeast  Level FlightAware Approximate
Mon 12:52:52 AM 34.6540 -26.1780 63° Northeast 486 559 36,000  Level FlightAware ADS-B
Mon 12:53:32 AM 34.6870 -26.0940 64° Northeast 486 559 36,000  Level FlightAware ADS-B
Mon 12:54:17 AM 34.7400 -25.9710 62° Northeast 489 563 36,000  Level FlightAware ADS-B
Mon 12:55:47 AM 34.8280 -25.7550 64° Northeast 483 556 36,000  Level FlightAware ADS-B
Mon 12:56:22 AM 34.8510 -25.7020 62° Northeast 486 559 36,000  Level FlightAware ADS-B
Mon 12:59:00 AM 35.0129 -25.3060 63° Northeast  Level FlightAware Approximate
Mon 12:59:22 AM 35.0430 -25.2260 63° Northeast 481 554 36,000  Level FlightAware ADS-B
Mon 01:02:00 AM 35.2034 -24.8282 64° Northeast  Level FlightAware Approximate
Mon 01:03:00 AM 35.2640 -24.6768 64° Northeast  Level FlightAware Approximate
Mon 01:04:00 AM 35.3244 -24.5251 64° Northeast  Level FlightAware Approximate
Mon 01:05:00 AM 35.3847 -24.3732 64° Northeast  Level FlightAware Approximate
Mon 01:05:27 AM 35.3780 -24.3820 64° Northeast 477 549 36,000  Level FlightAware ADS-B
Mon 01:06:17 AM 35.4430 -24.2150 64° Northeast 477 549 36,000  Level FlightAware ADS-B
Mon 01:07:07 AM 35.4730 -24.1390 64° Northeast 479 551 36,000  Level FlightAware ADS-B
Mon 01:07:47 AM 35.5060 -24.0560 64° Northeast 479 551 36,000  Level FlightAware ADS-B
Mon 01:08:37 AM 35.5480 -23.9520 64° Northeast 479 551 36,000  Level FlightAware ADS-B
Mon 01:09:17 AM 35.5810 -23.8680 64° Northeast 479 551 36,000  Level FlightAware ADS-B
Mon 01:09:57 AM 35.6140 -23.7850 64° Northeast 479 551 36,000  Level FlightAware ADS-B
Mon 01:10:37 AM 35.6470 -23.7020 64° Northeast 479 551 36,000  Level FlightAware ADS-B
Mon 01:11:17 AM 35.6800 -23.6190 64° Northeast 479 551 36,000  Level FlightAware ADS-B
Mon 01:12:07 AM 35.7210 -23.5140 64° Northeast 479 551 36,000  Level FlightAware ADS-B
Mon 01:12:47 AM 35.7540 -23.4310 64° Northeast 479 551 36,000  Level FlightAware ADS-B
Mon 01:13:27 AM 35.7870 -23.3470 64° Northeast 479 551 36,000  Level FlightAware ADS-B
Mon 01:14:07 AM 35.8200 -23.2640 64° Northeast 479 551 36,000  Level FlightAware ADS-B
Mon 01:14:47 AM 35.8530 -23.1800 64° Northeast 479 551 36,000  Level FlightAware ADS-B
Mon 01:15:37 AM 35.8940 -23.0760 64° Northeast 479 551 36,000  Level FlightAware ADS-B
Mon 01:16:17 AM 35.9270 -22.9920 64° Northeast 479 551 36,000  Level FlightAware ADS-B
Mon 01:18:00 AM 36.0174 -22.7220 67° East  Level Estimated
Mon 01:19:00 AM 36.0698 -22.5644 68° East  Level Estimated
Mon 01:19:42 AM 36.1800 -22.2670 68° East 36,000  Level FlightAware ADS-B
Mon 01:20:27 AM 36.2180 -22.1660 65° Northeast 481 554 36,000  Level FlightAware ADS-B
Mon 01:21:07 AM 36.2550 -22.0610 66° East 36,000  Level FlightAware ADS-B
Mon 01:22:02 AM 36.3100 -21.9130 65° Northeast 483 556 36,000  Level FlightAware ADS-B
Mon 01:22:47 AM 36.3580 -21.7790 66° East 476 548 36,000  Level FlightAware ADS-B
Mon 01:23:32 AM 36.3960 -21.6740 66° East 476 548 36,000  Level FlightAware ADS-B
Mon 01:24:12 AM 36.4340 -21.5680 66° East 477 549 36,000  Level FlightAware ADS-B
Mon 01:24:52 AM 36.4630 -21.4880 66° East 479 551 36,000  Level FlightAware ADS-B
Mon 01:25:37 AM 36.5000 -21.3830 66° East 479 551 36,000  Level FlightAware ADS-B
Mon 01:26:17 AM 36.5350 -21.2860 66° East 476 548 36,000  Level FlightAware ADS-B
Mon 01:27:02 AM 36.5760 -21.1690 66° East 476 548 36,000  Level FlightAware ADS-B
Mon 01:27:42 AM 36.6060 -21.0840 66° East 476 548 36,000  Level FlightAware ADS-B
Mon 01:28:17 AM 36.6520 -20.9530 66° East 475 547 36,000  Level FlightAware ADS-B
Mon 01:29:02 AM 36.6880 -20.8530 66° East 475 547 36,000  Level FlightAware ADS-B
Mon 01:30:02 AM 36.7360 -20.7150 67° East 478 550 36,000  Level FlightAware ADS-B
Mon 01:30:42 AM 36.7670 -20.6290 66° East 478 550 36,000  Level FlightAware ADS-B
Mon 01:31:27 AM 36.8070 -20.5100 67° East 479 551 36,000  Level FlightAware ADS-B
Mon 01:32:07 AM 36.8380 -20.4240 66° East 479 551 36,000  Level FlightAware ADS-B
Mon 01:32:47 AM 36.8690 -20.3380 66° East 479 551 36,000  Level FlightAware ADS-B
Mon 01:33:27 AM 36.8990 -20.2520 66° East 479 551 36,000  Level FlightAware ADS-B
Mon 01:34:17 AM 36.9380 -20.1450 65° Northeast 479 551 36,000  Level FlightAware ADS-B
Mon 01:34:57 AM 37.0010 -19.9510 68° East 479 551 36,000  Level FlightAware ADS-B
Mon 01:35:42 AM 37.0410 -19.8550 62° Northeast 479 551 36,000  Level FlightAware ADS-B
Mon 01:36:17 AM 37.0850 -19.7600 60° Northeast 478 550 36,000  Level FlightAware ADS-B
Mon 01:36:57 AM 37.1220 -19.6770 61° Northeast 478 550 36,000  Level FlightAware ADS-B
Mon 01:37:47 AM 37.1670 -19.5740 61° Northeast 478 550 36,000  Level FlightAware ADS-B
Mon 01:38:27 AM 37.2040 -19.4910 61° Northeast 478 550 36,000  Level FlightAware ADS-B
Mon 01:39:07 AM 37.2400 -19.4090 61° Northeast 478 550 36,000  Level FlightAware ADS-B
Mon 01:39:47 AM 37.2760 -19.3260 61° Northeast 478 550 36,000  Level FlightAware ADS-B
Mon 01:40:27 AM 37.3130 -19.2430 61° Northeast 478 550 36,000  Level FlightAware ADS-B
Mon 01:41:17 AM 37.3580 -19.1400 61° Northeast 478 550 36,000  Level FlightAware ADS-B
Mon 01:41:57 AM 37.3950 -19.0570 61° Northeast 478 550 36,000  Level FlightAware ADS-B
Mon 01:42:37 AM 37.4310 -18.9750 61° Northeast 478 550 36,000  Level FlightAware ADS-B
Mon 01:43:17 AM 37.4680 -18.8920 61° Northeast 478 550 36,000  Level FlightAware ADS-B
Mon 01:43:57 AM 37.5040 -18.8090 61° Northeast 478 550 36,000  Level FlightAware ADS-B
Mon 01:44:47 AM 37.5500 -18.7050 61° Northeast 478 550 36,000  Level FlightAware ADS-B
Mon 01:45:27 AM 37.5860 -18.6220 61° Northeast 478 550 36,000 -32 Level FlightAware ADS-B
Mon 01:48:00 AM 37.7366 -18.2211 62° Northeast  Level FlightAware Approximate
Mon 01:49:00 AM 37.8003 -18.0666 62° Northeast  Level FlightAware Approximate
Mon 01:50:00 AM 37.8638 -17.9118 63° Northeast  Level FlightAware Approximate
Mon 01:51:00 AM 37.9270 -17.7567 63° Northeast  Level FlightAware Approximate
Mon 01:52:00 AM 37.9901 -17.6013 63° Northeast  Level FlightAware Approximate
Mon 01:53:00 AM 38.0529 -17.4457 63° Northeast  Level FlightAware Approximate
Mon 01:54:00 AM 38.1155 -17.2899 63° Northeast  Level FlightAware Approximate
Mon 01:55:00 AM 38.1780 -17.1337 63° Northeast  Level FlightAware Approximate
Mon 01:56:00 AM 38.2402 -16.9773 63° Northeast  Level FlightAware Approximate
Mon 01:57:00 AM 38.3022 -16.8206 63° Northeast  Level FlightAware Approximate
Mon 01:58:00 AM 38.3640 -16.6637 63° Northeast  Level FlightAware Approximate
Mon 01:59:00 AM 38.4256 -16.5064 63° Northeast  Level FlightAware Approximate
Mon 02:00:00 AM 38.4870 -16.3490 63° Northeast  Level FlightAware Approximate
Mon 02:01:00 AM 38.5482 -16.1912 64° Northeast  Level FlightAware Approximate
Mon 02:02:00 AM 38.6091 -16.0332 64° Northeast  Level FlightAware Approximate
Mon 02:03:00 AM 38.6699 -15.8749 64° Northeast  Level FlightAware Approximate
Mon 02:04:00 AM 38.7304 -15.7163 64° Northeast  Level FlightAware Approximate
Mon 02:05:00 AM 38.7908 -15.5575 64° Northeast  Level FlightAware Approximate
Mon 02:06:00 AM 38.8509 -15.3984 64° Northeast  Level FlightAware Approximate
Mon 02:07:00 AM 38.9108 -15.2391 64° Northeast  Level FlightAware Approximate
Mon 02:08:00 AM 38.9704 -15.0794 64° Northeast  Level FlightAware Approximate
Mon 02:09:00 AM 39.0156 -14.9131 77° East  Level FlightAware Approximate
Mon 02:10:00 AM 39.0465 -14.7403 77° East  Level FlightAware Approximate
Mon 02:11:00 AM 39.0770 -14.5673 77° East  Level FlightAware Approximate
Mon 02:12:00 AM 39.1074 -14.3942 77° East  Level FlightAware Approximate
Mon 02:13:00 AM 39.1375 -14.2209 77° East  Level FlightAware Approximate
Mon 02:14:00 AM 39.1673 -14.0475 77° East  Level FlightAware Approximate
Mon 02:15:00 AM 39.1969 -13.8739 78° East  Level FlightAware Approximate
Mon 02:16:00 AM 39.2262 -13.7002 78° East  Level FlightAware Approximate
Mon 02:17:00 AM 39.2552 -13.5263 78° East  Level FlightAware Approximate
Mon 02:18:00 AM 39.2840 -13.3523 78° East  Level FlightAware Approximate
Mon 02:19:00 AM 39.3125 -13.1781 78° East  Level FlightAware Approximate
Mon 02:20:00 AM 39.3408 -13.0038 78° East  Level FlightAware Approximate
Mon 02:21:00 AM 39.3688 -12.8294 78° East  Level FlightAware Approximate
Mon 02:22:00 AM 39.3966 -12.6549 78° East  Level FlightAware Approximate
Mon 02:23:00 AM 39.4241 -12.4801 78° East  Level FlightAware Approximate
Mon 02:24:00 AM 39.4513 -12.3053 79° East  Level FlightAware Approximate
Mon 02:25:00 AM 39.4783 -12.1303 79° East  Level FlightAware Approximate
Mon 02:26:00 AM 39.5050 -11.9552 79° East  Level FlightAware Approximate
Mon 02:27:00 AM 39.5314 -11.7799 79° East  Level FlightAware Approximate
Mon 02:28:00 AM 39.5576 -11.6045 79° East  Level FlightAware Approximate
Mon 02:29:00 AM 39.5835 -11.4290 79° East  Level FlightAware Approximate
Mon 02:30:00 AM 39.6092 -11.2534 79° East  Level FlightAware Approximate
Mon 02:31:00 AM 39.6346 -11.0776 79° East  Level FlightAware Approximate
Mon 02:32:00 AM 39.6597 -10.9017 79° East  Level FlightAware Approximate
Mon 02:33:00 AM 39.6845 -10.7256 80° East  Level FlightAware Approximate
Mon 02:34:00 AM 39.7091 -10.5495 80° East  Level FlightAware Approximate
Mon 02:35:00 AM 39.7335 -10.3732 80° East  Level FlightAware Approximate
Mon 02:35:17 AM 39.4890 -10.2820 80° East 502 578 34,400  Level FlightAware ADS-B
Mon 02:36:00 AM 39.7575 -10.1968 80° East  Level FlightAware Approximate
Mon 02:36:02 AM 39.5070 -10.0940 83° East 34,000  Level FlightAware ADS-B
Mon 02:36:42 AM 39.5170 -9.9910 83° East 490 564 34,000  Level FlightAware ADS-B
Mon 02:37:22 AM 39.5290 -9.8590 83° East 491 565 34,000  Level FlightAware ADS-B
Mon 02:38:07 AM 39.5410 -9.7350 83° East 492 566 34,000  Level FlightAware ADS-B
Mon 02:38:47 AM 39.5520 -9.6120 83° East 494 568 34,000  Level FlightAware ADS-B
Mon 02:39:27 AM 39.5630 -9.4930 83° East 495 570 34,000  Level FlightAware ADS-B
Mon 02:40:12 AM 39.5750 -9.3620 83° East 495 570 34,000  Level FlightAware ADS-B
Mon 02:40:52 AM 39.5850 -9.2480 83° East 496 571 34,000  Level FlightAware ADS-B
Mon 02:41:37 AM 39.5970 -9.1140 83° East 497 572 34,000  Level FlightAware ADS-B
Mon 02:42:17 AM 39.6070 -8.9930 84° East 497 572 34,000  Level FlightAware ADS-B
Mon 02:43:02 AM 39.6190 -8.8580 83° East 498 573 34,000  Level FlightAware ADS-B
Mon 02:43:42 AM 39.6290 -8.7400 84° East 498 573 34,000  Level FlightAware ADS-B
Mon 02:44:22 AM 39.6390 -8.6200 84° East 499 574 34,000  Level FlightAware ADS-B
Mon 02:45:07 AM 39.6500 -8.4870 84° East 499 574 34,000  Level FlightAware ADS-B
Mon 02:45:47 AM 39.6600 -8.3670 84° East 501 577 34,000  Level FlightAware ADS-B
Mon 02:46:32 AM 39.6700 -8.2330 84° East 502 578 34,000  Level FlightAware ADS-B
Mon 02:47:12 AM 39.6800 -8.1150 84° East 503 579 34,000  Level FlightAware ADS-B
Mon 02:47:52 AM 39.6890 -7.9930 84° East 504 580 34,000  Level FlightAware ADS-B
Mon 02:48:37 AM 39.7000 -7.8580 84° East 503 579 34,000  Level FlightAware ADS-B
Mon 02:49:17 AM 39.7090 -7.7380 84° East 504 580 34,000  Level FlightAware ADS-B
Mon 02:50:02 AM 39.7190 -7.6040 84° East 505 581 34,000  Level FlightAware ADS-B
Mon 02:50:42 AM 39.7280 -7.4850 84° East 506 582 34,000  Level FlightAware ADS-B
Mon 02:51:22 AM 39.7360 -7.3620 85° East 508 585 34,000  Level FlightAware ADS-B
Mon 02:52:07 AM 39.7460 -7.2260 84° East 508 585 34,000  Level FlightAware ADS-B
Mon 02:52:47 AM 39.7550 -7.1030 85° East 509 586 34,000  Level FlightAware ADS-B
Mon 02:53:27 AM 39.7630 -6.9820 85° East 509 586 34,000  Level FlightAware ADS-B
Mon 02:54:12 AM 39.7720 -6.8480 85° East 509 586 34,000  Level FlightAware ADS-B
Mon 02:54:52 AM 39.7810 -6.7230 85° East 510 587 34,000  Level FlightAware ADS-B
Mon 02:55:32 AM 39.7890 -6.6030 85° East 509 586 34,000 -141 Level FlightAware ADS-B
Mon 02:56:17 AM 39.7980 -6.4630 85° East 508 585 33,800 -467 Descending FlightAware ADS-B
Mon 02:57:02 AM 39.8070 -6.3310 85° East 501 577 33,300 -450 Descending FlightAware ADS-B
Mon 02:57:37 AM 39.8150 -6.2360 84° East 499 574 33,200 -71 Descending FlightAware ADS-B
Mon 02:58:27 AM 39.8250 -6.1090 84° East 499 574 33,200  Level FlightAware ADS-B
Mon 02:59:07 AM 39.8330 -6.0070 84° East 499 574 33,200  Level FlightAware ADS-B
Mon 02:59:47 AM 39.8410 -5.9060 84° East 499 574 33,200  Level FlightAware ADS-B
Mon 03:00:27 AM 39.8500 -5.8040 83° East 499 574 33,200  Level FlightAware ADS-B
Mon 03:01:07 AM 39.8580 -5.7020 84° East 499 574 33,200  Level FlightAware ADS-B
Mon 03:01:47 AM 39.8660 -5.6000 84° East 499 574 33,200  Level FlightAware ADS-B
Mon 03:02:37 AM 39.8760 -5.4730 84° East 499 574 33,200  Level FlightAware ADS-B
Mon 03:03:17 AM 39.8840 -5.3720 84° East 499 574 33,200 -4,176 Level FlightAware ADS-B
Mon 03:03:57 AM 39.9060 -5.1790 81° East 25,700 -6,141 Descending FlightAware ADS-B
Mon 03:04:42 AM 39.9160 -5.0540 84° East 430 495 24,500 -1,553 Descending FlightAware ADS-B
Mon 03:05:22 AM 39.9240 -4.9510 84° East 425 489 23,500 -1,906 Descending FlightAware ADS-B
Mon 03:06:07 AM 39.9350 -4.8380 83° East 426 490 21,800 -2,188 Descending FlightAware ADS-B
Mon 03:06:47 AM 39.9540 -4.7380 76° East 422 486 20,400 -1,906 Descending FlightAware ADS-B
Mon 03:07:32 AM 39.9750 -4.6300 76° East 409 471 19,100 -1,765 Descending FlightAware ADS-B
Mon 03:08:12 AM 39.9930 -4.5350 76° East 397 457 17,900 -1,725 Descending FlightAware ADS-B
Mon 03:08:52 AM 40.0100 -4.4460 76° East 385 443 16,800 -1,765 Descending FlightAware ADS-B
Mon 03:09:37 AM 40.0290 -4.3430 76° East 374 430 15,400 -1,835 Descending FlightAware ADS-B
Mon 03:10:17 AM 40.0450 -4.2540 77° East 370 426 14,200 -1,765 Descending FlightAware ADS-B
Mon 03:11:02 AM 40.0630 -4.1600 76° East 364 419 12,900 -1,765 Descending FlightAware ADS-B
Mon 03:11:42 AM 40.0790 -4.0720 77° East 359 413 11,700 -1,725 Descending FlightAware ADS-B
Mon 03:12:22 AM 40.0940 -3.9900 77° East 351 404 10,600 -1,341 Descending FlightAware ADS-B
Mon 03:13:07 AM 40.1110 -3.9000 76° East 321 369 9,800 -1,114 Descending FlightAware ADS-B
Mon 03:13:32 AM 40.1190 -3.8540 77° East 304 350 9,300 -1,200 Descending FlightAware ADS-B
Mon 03:13:47 AM 40.1240 -3.8280 76° East 304 350 9,000 -1,067 Descending FlightAware ADS-B
Mon 03:14:17 AM 40.1330 -3.7760 77° East 287 330 8,500 -764 Descending FlightAware ADS-B
Mon 03:14:42 AM 40.1410 -3.7350 76° East 265 305 8,300 -764 Descending FlightAware ADS-B
Mon 03:15:12 AM 40.1490 -3.6890 77° East 253 291 7,800 -1,100 Descending FlightAware ADS-B
Mon 03:15:42 AM 40.1570 -3.6450 77° East 253 291 7,200 -1,309 Descending FlightAware ADS-B
Mon 03:16:07 AM 40.1630 -3.6060 79° East 254 292 6,600 -1,200 Descending FlightAware ADS-B
Mon 03:16:37 AM 40.1700 -3.5610 78° East 252 290 6,100 -982 Descending FlightAware ADS-B
Mon 03:17:02 AM 40.1770 -3.5250 76° East 246 283 5,700 -982 Descending FlightAware ADS-B
Mon 03:17:32 AM 40.1850 -3.4810 77° East 239 275 5,200 -873 Descending FlightAware ADS-B
Mon 03:17:57 AM 40.1920 -3.4480 74° East 231 266 4,900 -600 Descending FlightAware ADS-B
Mon 03:18:12 AM 40.2050 -3.4340 39° Northeast 231 266 4,800 -200 Descending FlightAware ADS-B
Mon 03:18:27 AM 40.2200 -3.4310 North 214 246 4,800  Level FlightAware ADS-B
Mon 03:18:57 AM 40.2490 -3.4310 360° North 209 241 4,800 -109 Level FlightAware ADS-B
Mon 03:19:22 AM 40.2730 -3.4330 356° North 209 241 4,700 -300 Descending FlightAware ADS-B
Mon 03:19:37 AM 40.2880 -3.4330 360° North 209 241 4,600 -450 Descending FlightAware ADS-B
Mon 03:20:02 AM 40.3100 -3.4350 356° North 208 239 4,400 -436 Descending FlightAware ADS-B
Mon 03:20:32 AM 40.3410 -3.4410 352° North 202 232 4,200 -500 Descending FlightAware ADS-B
Mon 03:21:02 AM 40.3670 -3.4590 332° Northwest 207 238 3,900 -545 Descending FlightAware ADS-B
Mon 03:21:27 AM 40.3850 -3.4750 326° Northwest 186 214 3,700 -873 Descending FlightAware ADS-B
Mon 03:21:57 AM 40.4080 -3.4980 323° Northwest 188 216 3,100 -1,100 Descending FlightAware ADS-B
Mon 03:22:27 AM 40.4270 -3.5180 321° Northwest 170 196 2,600 -982 Descending FlightAware ADS-B
Mon 03:22:52 AM 40.4420 -3.5330 323° Northwest 156 180 2,200 -873 Descending FlightAware ADS-B
Mon 03:23:22 AM 40.4590 -3.5500 323° Northwest 151 174 1,800 -667 Descending FlightAware ADS-B
Mon 03:23:37 AM 40.4670 -3.5580 323° Northwest 148 170 1,700 -400 Descending FlightAware ADS-B

Login

Don't have an account? Register now (free) for customized features, flight alerts, and more!